sensor_id;sensor_type;location;lat;lon;timestamp;pressure;altitude;pressure_sealevel;temperature;humidity
81109;BME280;70589;51.826;5.860;2023-06-22T00:01:13;101711.70;;;23.39;42.44
81109;BME280;70589;51.826;5.860;2023-06-22T00:03:38;101710.13;;;23.40;43.06
81109;BME280;70589;51.826;5.860;2023-06-22T00:06:03;101712.48;;;23.39;43.14
81109;BME280;70589;51.826;5.860;2023-06-22T00:08:29;101705.44;;;23.32;42.40
81109;BME280;70589;51.826;5.860;2023-06-22T00:10:54;101705.81;;;23.25;42.65
81109;BME280;70589;51.826;5.860;2023-06-22T00:13:20;101705.20;;;23.18;41.81
81109;BME280;70589;51.826;5.860;2023-06-22T00:15:45;101700.58;;;23.20;42.98
81109;BME280;70589;51.826;5.860;2023-06-22T00:18:11;101704.11;;;23.41;42.85
81109;BME280;70589;51.826;5.860;2023-06-22T00:20:35;101704.87;;;23.17;42.34
81109;BME280;70589;51.826;5.860;2023-06-22T00:23:00;101702.88;;;23.12;43.10
81109;BME280;70589;51.826;5.860;2023-06-22T00:25:26;101696.46;;;23.05;42.49
81109;BME280;70589;51.826;5.860;2023-06-22T00:27:52;101692.17;;;22.97;42.86
81109;BME280;70589;51.826;5.860;2023-06-22T00:30:18;101698.79;;;22.91;42.75
81109;BME280;70589;51.826;5.860;2023-06-22T00:32:43;101708.92;;;22.84;43.31
81109;BME280;70589;51.826;5.860;2023-06-22T00:35:08;101712.41;;;23.23;43.37
81109;BME280;70589;51.826;5.860;2023-06-22T00:37:34;101704.05;;;22.93;43.61
81109;BME280;70589;51.826;5.860;2023-06-22T00:39:59;101703.69;;;22.64;42.88
81109;BME280;70589;51.826;5.860;2023-06-22T00:42:24;101706.60;;;22.84;42.80
81109;BME280;70589;51.826;5.860;2023-06-22T00:44:50;101711.18;;;22.48;43.02
81109;BME280;70589;51.826;5.860;2023-06-22T00:47:17;101712.93;;;22.43;43.63
81109;BME280;70589;51.826;5.860;2023-06-22T00:49:41;101711.37;;;22.89;43.89
81109;BME280;70589;51.826;5.860;2023-06-22T00:52:07;101707.15;;;22.54;43.62
81109;BME280;70589;51.826;5.860;2023-06-22T00:54:31;101711.27;;;22.52;44.04
81109;BME280;70589;51.826;5.860;2023-06-22T00:56:57;101714.81;;;22.45;44.42
81109;BME280;70589;51.826;5.860;2023-06-22T00:59:22;101713.10;;;22.38;44.09
81109;BME280;70589;51.826;5.860;2023-06-22T01:01:47;101707.27;;;22.50;43.66
81109;BME280;70589;51.826;5.860;2023-06-22T01:04:12;101702.45;;;22.31;43.76
81109;BME280;70589;51.826;5.860;2023-06-22T01:06:44;101702.22;;;22.47;44.30
81109;BME280;70589;51.826;5.860;2023-06-22T01:09:08;101701.61;;;22.20;43.23
81109;BME280;70589;51.826;5.860;2023-06-22T01:11:34;101699.87;;;22.20;43.32
81109;BME280;70589;51.826;5.860;2023-06-22T01:13:59;101699.45;;;22.36;44.36
81109;BME280;70589;51.826;5.860;2023-06-22T01:16:24;101698.65;;;22.34;44.24
81109;BME280;70589;51.826;5.860;2023-06-22T01:18:48;101694.20;;;22.35;44.09
81109;BME280;70589;51.826;5.860;2023-06-22T01:21:14;101689.05;;;22.33;44.10
81109;BME280;70589;51.826;5.860;2023-06-22T01:23:48;101683.94;;;22.08;44.39
81109;BME280;70589;51.826;5.860;2023-06-22T01:26:08;101682.54;;;22.26;45.01
81109;BME280;70589;51.826;5.860;2023-06-22T01:28:40;101686.05;;;22.24;44.87
81109;BME280;70589;51.826;5.860;2023-06-22T01:30:53;101689.21;;;22.24;44.97
81109;BME280;70589;51.826;5.860;2023-06-22T01:33:18;101691.64;;;22.17;45.29
81109;BME280;70589;51.826;5.860;2023-06-22T01:35:44;101690.40;;;22.19;44.54
81109;BME280;70589;51.826;5.860;2023-06-22T01:38:09;101686.53;;;22.16;44.75
81109;BME280;70589;51.826;5.860;2023-06-22T01:40:34;101688.23;;;22.13;45.58
81109;BME280;70589;51.826;5.860;2023-06-22T01:43:00;101692.52;;;22.07;45.68
81109;BME280;70589;51.826;5.860;2023-06-22T01:45:26;101693.81;;;22.06;45.31
81109;BME280;70589;51.826;5.860;2023-06-22T01:47:51;101690.50;;;22.01;45.08
81109;BME280;70589;51.826;5.860;2023-06-22T01:50:17;101689.33;;;22.03;45.07
81109;BME280;70589;51.826;5.860;2023-06-22T01:52:43;101689.04;;;22.23;45.36
81109;BME280;70589;51.826;5.860;2023-06-22T01:55:08;101685.22;;;21.96;45.76
81109;BME280;70589;51.826;5.860;2023-06-22T01:57:34;101683.73;;;22.15;45.14
81109;BME280;70589;51.826;5.860;2023-06-22T02:00:02;101683.51;;;22.15;45.07
81109;BME280;70589;51.826;5.860;2023-06-22T02:02:24;101686.59;;;21.89;44.84
81109;BME280;70589;51.826;5.860;2023-06-22T02:04:54;101683.64;;;21.84;45.78
81109;BME280;70589;51.826;5.860;2023-06-22T02:07:17;101680.74;;;21.85;45.11
81109;BME280;70589;51.826;5.860;2023-06-22T02:09:43;101682.84;;;21.87;45.32
81109;BME280;70589;51.826;5.860;2023-06-22T02:12:07;101682.35;;;21.85;44.91
81109;BME280;70589;51.826;5.860;2023-06-22T02:14:32;101683.65;;;22.07;45.42
81109;BME280;70589;51.826;5.860;2023-06-22T02:16:57;101684.74;;;21.83;45.34
81109;BME280;70589;51.826;5.860;2023-06-22T02:19:23;101684.85;;;21.80;45.25
81109;BME280;70589;51.826;5.860;2023-06-22T02:21:49;101683.94;;;22.02;45.30
81109;BME280;70589;51.826;5.860;2023-06-22T02:24:14;101683.31;;;22.03;45.06
81109;BME280;70589;51.826;5.860;2023-06-22T02:26:39;101679.08;;;21.73;44.58
81109;BME280;70589;51.826;5.860;2023-06-22T02:29:04;101673.89;;;21.75;44.93
81109;BME280;70589;51.826;5.860;2023-06-22T02:31:30;101673.86;;;21.71;44.87
81109;BME280;70589;51.826;5.860;2023-06-22T02:33:55;101667.26;;;21.88;45.07
81109;BME280;70589;51.826;5.860;2023-06-22T02:36:21;101662.43;;;21.82;44.81
81109;BME280;70589;51.826;5.860;2023-06-22T02:38:46;101658.87;;;21.80;45.10
81109;BME280;70589;51.826;5.860;2023-06-22T02:41:12;101661.41;;;21.79;45.86
81109;BME280;70589;51.826;5.860;2023-06-22T02:43:38;101663.41;;;21.78;45.62
81109;BME280;70589;51.826;5.860;2023-06-22T02:46:03;101668.44;;;21.98;45.89
81109;BME280;70589;51.826;5.860;2023-06-22T02:48:29;101667.84;;;21.51;45.77
81109;BME280;70589;51.826;5.860;2023-06-22T02:50:54;101661.66;;;21.73;45.63
81109;BME280;70589;51.826;5.860;2023-06-22T02:53:19;101657.94;;;21.68;45.48
81109;BME280;70589;51.826;5.860;2023-06-22T02:55:45;101659.25;;;21.68;46.01
81109;BME280;70589;51.826;5.860;2023-06-22T02:58:10;101659.74;;;21.63;45.66
81109;BME280;70589;51.826;5.860;2023-06-22T03:00:35;101657.52;;;21.68;45.64
81109;BME280;70589;51.826;5.860;2023-06-22T03:03:01;101653.69;;;21.67;45.38
81109;BME280;70589;51.826;5.860;2023-06-22T03:05:26;101652.46;;;21.65;45.24
81109;BME280;70589;51.826;5.860;2023-06-22T03:07:52;101649.44;;;21.60;46.05
81109;BME280;70589;51.826;5.860;2023-06-22T03:10:17;101645.51;;;21.60;46.15
81109;BME280;70589;51.826;5.860;2023-06-22T03:12:43;101646.85;;;21.79;45.80
81109;BME280;70589;51.826;5.860;2023-06-22T03:15:11;101647.19;;;21.24;45.71
81109;BME280;70589;51.826;5.860;2023-06-22T03:17:34;101648.21;;;21.20;46.06
81109;BME280;70589;51.826;5.860;2023-06-22T03:19:59;101647.04;;;21.46;45.48
81109;BME280;70589;51.826;5.860;2023-06-22T03:22:25;101647.46;;;21.19;46.20
81109;BME280;70589;51.826;5.860;2023-06-22T03:24:50;101637.60;;;21.35;46.66
81109;BME280;70589;51.826;5.860;2023-06-22T03:27:16;101632.41;;;21.30;46.25
81109;BME280;70589;51.826;5.860;2023-06-22T03:29:41;101632.37;;;21.50;46.40
81109;BME280;70589;51.826;5.860;2023-06-22T03:32:07;101630.22;;;21.24;46.32
81109;BME280;70589;51.826;5.860;2023-06-22T03:34:33;101631.02;;;21.21;46.84
81109;BME280;70589;51.826;5.860;2023-06-22T03:36:59;101630.43;;;21.37;46.10
81109;BME280;70589;51.826;5.860;2023-06-22T03:39:24;101627.04;;;21.32;46.38
81109;BME280;70589;51.826;5.860;2023-06-22T03:41:50;101628.16;;;21.08;46.32
81109;BME280;70589;51.826;5.860;2023-06-22T03:44:15;101628.48;;;21.07;46.70
81109;BME280;70589;51.826;5.860;2023-06-22T03:46:41;101629.18;;;20.99;47.19
81109;BME280;70589;51.826;5.860;2023-06-22T03:49:06;101628.60;;;20.98;46.95
81109;BME280;70589;51.826;5.860;2023-06-22T03:51:32;101627.22;;;21.01;47.16
81109;BME280;70589;51.826;5.860;2023-06-22T03:53:57;101627.56;;;21.19;46.67
81109;BME280;70589;51.826;5.860;2023-06-22T03:56:22;101625.54;;;21.20;47.23
81109;BME280;70589;51.826;5.860;2023-06-22T03:58:48;101626.49;;;20.98;47.00
81109;BME280;70589;51.826;5.860;2023-06-22T04:01:13;101626.10;;;20.96;47.15
81109;BME280;70589;51.826;5.860;2023-06-22T04:03:40;101625.92;;;20.93;47.05
81109;BME280;70589;51.826;5.860;2023-06-22T04:06:04;101625.84;;;20.96;47.33
81109;BME280;70589;51.826;5.860;2023-06-22T04:08:29;101627.12;;;20.94;47.20
81109;BME280;70589;51.826;5.860;2023-06-22T04:10:55;101627.12;;;21.19;46.56
81109;BME280;70589;51.826;5.860;2023-06-22T04:13:20;101626.29;;;20.93;47.02
81109;BME280;70589;51.826;5.860;2023-06-22T04:15:45;101627.21;;;21.18;47.04
81109;BME280;70589;51.826;5.860;2023-06-22T04:18:11;101628.14;;;20.98;47.58
81109;BME280;70589;51.826;5.860;2023-06-22T04:20:36;101622.06;;;21.01;46.32
81109;BME280;70589;51.826;5.860;2023-06-22T04:23:02;101618.97;;;21.01;47.18
81109;BME280;70589;51.826;5.860;2023-06-22T04:25:27;101619.62;;;21.27;46.98
81109;BME280;70589;51.826;5.860;2023-06-22T04:27:52;101622.22;;;21.06;47.23
81109;BME280;70589;51.826;5.860;2023-06-22T04:30:18;101621.70;;;21.02;46.84
81109;BME280;70589;51.826;5.860;2023-06-22T04:32:43;101623.36;;;21.03;47.10
81109;BME280;70589;51.826;5.860;2023-06-22T04:35:09;101623.39;;;21.30;47.45
81109;BME280;70589;51.826;5.860;2023-06-22T04:37:34;101625.70;;;21.05;47.11
81109;BME280;70589;51.826;5.860;2023-06-22T04:40:00;101622.11;;;21.07;47.07
81109;BME280;70589;51.826;5.860;2023-06-22T04:42:26;101621.25;;;21.11;47.35
81109;BME280;70589;51.826;5.860;2023-06-22T04:44:51;101615.78;;;21.37;47.53
81109;BME280;70589;51.826;5.860;2023-06-22T04:47:16;101614.20;;;21.34;46.77
81109;BME280;70589;51.826;5.860;2023-06-22T04:49:41;101609.14;;;21.15;46.89
81109;BME280;70589;51.826;5.860;2023-06-22T04:52:08;101602.59;;;21.14;47.17
81109;BME280;70589;51.826;5.860;2023-06-22T04:54:33;101603.73;;;21.14;47.53
81109;BME280;70589;51.826;5.860;2023-06-22T04:56:58;101607.71;;;21.40;47.23
81109;BME280;70589;51.826;5.860;2023-06-22T04:59:24;101611.08;;;21.38;47.44
81109;BME280;70589;51.826;5.860;2023-06-22T05:01:49;101609.47;;;21.46;47.94
81109;BME280;70589;51.826;5.860;2023-06-22T05:04:15;101604.68;;;21.22;47.12
81109;BME280;70589;51.826;5.860;2023-06-22T05:06:40;101610.29;;;21.48;47.70
81109;BME280;70589;51.826;5.860;2023-06-22T05:09:06;101614.33;;;21.29;47.98
81109;BME280;70589;51.826;5.860;2023-06-22T05:11:31;101612.88;;;21.53;48.02
81109;BME280;70589;51.826;5.860;2023-06-22T05:13:56;101617.04;;;21.28;47.97
81109;BME280;70589;51.826;5.860;2023-06-22T05:16:23;101615.98;;;21.29;48.40
81109;BME280;70589;51.826;5.860;2023-06-22T05:18:47;101614.52;;;21.37;47.81
81109;BME280;70589;51.826;5.860;2023-06-22T05:21:12;101619.87;;;21.63;47.72
81109;BME280;70589;51.826;5.860;2023-06-22T05:23:38;101620.02;;;21.67;48.02
81109;BME280;70589;51.826;5.860;2023-06-22T05:26:03;101616.70;;;21.47;47.82
81109;BME280;70589;51.826;5.860;2023-06-22T05:28:29;101615.72;;;21.25;47.79
81109;BME280;70589;51.826;5.860;2023-06-22T05:30:55;101615.15;;;21.47;47.19
81109;BME280;70589;51.826;5.860;2023-06-22T05:33:20;101624.38;;;21.53;47.58
81109;BME280;70589;51.826;5.860;2023-06-22T05:35:46;101630.30;;;21.55;47.24
81109;BME280;70589;51.826;5.860;2023-06-22T05:38:11;101633.85;;;21.59;47.92
81109;BME280;70589;51.826;5.860;2023-06-22T05:40:37;101639.53;;;21.58;48.06
81109;BME280;70589;51.826;5.860;2023-06-22T05:43:02;101637.91;;;21.53;47.64
81109;BME280;70589;51.826;5.860;2023-06-22T05:45:28;101636.42;;;21.55;47.88
81109;BME280;70589;51.826;5.860;2023-06-22T05:47:53;101634.86;;;21.33;48.10
81109;BME280;70589;51.826;5.860;2023-06-22T05:50:19;101639.57;;;21.38;47.72
81109;BME280;70589;51.826;5.860;2023-06-22T05:52:45;101638.50;;;21.46;47.72
81109;BME280;70589;51.826;5.860;2023-06-22T05:55:10;101635.91;;;21.78;48.17
81109;BME280;70589;51.826;5.860;2023-06-22T05:57:36;101629.89;;;21.59;47.74
81109;BME280;70589;51.826;5.860;2023-06-22T06:00:02;101627.63;;;21.62;47.23
81109;BME280;70589;51.826;5.860;2023-06-22T06:02:27;101630.31;;;21.94;47.50
81109;BME280;70589;51.826;5.860;2023-06-22T06:04:53;101633.22;;;21.77;47.12
81109;BME280;70589;51.826;5.860;2023-06-22T06:07:18;101628.66;;;22.05;47.39
81109;BME280;70589;51.826;5.860;2023-06-22T06:09:44;101630.72;;;22.12;47.11
81109;BME280;70589;51.826;5.860;2023-06-22T06:12:09;101632.07;;;21.96;47.23
81109;BME280;70589;51.826;5.860;2023-06-22T06:14:35;101631.90;;;22.02;47.42
81109;BME280;70589;51.826;5.860;2023-06-22T06:17:00;101629.35;;;22.16;46.89
81109;BME280;70589;51.826;5.860;2023-06-22T06:19:26;101630.40;;;22.28;47.11
81109;BME280;70589;51.826;5.860;2023-06-22T06:21:51;101625.92;;;22.38;46.55
81109;BME280;70589;51.826;5.860;2023-06-22T06:24:17;101623.34;;;22.41;46.44
81109;BME280;70589;51.826;5.860;2023-06-22T06:26:42;101617.14;;;22.23;46.00
81109;BME280;70589;51.826;5.860;2023-06-22T06:29:08;101612.38;;;22.57;46.83
81109;BME280;70589;51.826;5.860;2023-06-22T06:31:33;101612.50;;;22.69;46.19
81109;BME280;70589;51.826;5.860;2023-06-22T06:33:59;101609.27;;;22.59;46.52
81109;BME280;70589;51.826;5.860;2023-06-22T06:36:24;101607.00;;;22.96;46.49
81109;BME280;70589;51.826;5.860;2023-06-22T06:38:50;101603.97;;;22.84;46.28
81109;BME280;70589;51.826;5.860;2023-06-22T06:41:16;101606.12;;;22.75;45.48
81109;BME280;70589;51.826;5.860;2023-06-22T06:43:41;101606.36;;;22.84;45.00
81109;BME280;70589;51.826;5.860;2023-06-22T06:46:06;101606.77;;;23.03;45.08
81109;BME280;70589;51.826;5.860;2023-06-22T06:48:31;101601.28;;;23.23;45.45
81109;BME280;70589;51.826;5.860;2023-06-22T06:50:57;101601.93;;;23.41;45.32
81109;BME280;70589;51.826;5.860;2023-06-22T06:53:22;101604.71;;;23.56;44.27
81109;BME280;70589;51.826;5.860;2023-06-22T06:55:48;101604.61;;;23.71;43.98
81109;BME280;70589;51.826;5.860;2023-06-22T06:58:13;101609.12;;;23.86;44.43
81109;BME280;70589;51.826;5.860;2023-06-22T07:00:39;101605.13;;;23.99;44.08
81109;BME280;70589;51.826;5.860;2023-06-22T07:03:05;101600.05;;;23.81;43.92
81109;BME280;70589;51.826;5.860;2023-06-22T07:05:30;101597.13;;;23.91;43.70
81109;BME280;70589;51.826;5.860;2023-06-22T07:07:56;101591.86;;;23.76;43.46
81109;BME280;70589;51.826;5.860;2023-06-22T07:10:21;101589.93;;;24.39;43.36
81109;BME280;70589;51.826;5.860;2023-06-22T07:12:47;101586.13;;;24.47;44.12
81109;BME280;70589;51.826;5.860;2023-06-22T07:15:13;101582.18;;;24.06;42.94
81109;BME280;70589;51.826;5.860;2023-06-22T07:17:38;101582.71;;;24.12;43.63
81109;BME280;70589;51.826;5.860;2023-06-22T07:20:04;101583.46;;;24.25;43.43
81109;BME280;70589;51.826;5.860;2023-06-22T07:22:29;101580.33;;;24.32;43.68
81109;BME280;70589;51.826;5.860;2023-06-22T07:24:54;101576.96;;;24.63;42.97
81109;BME280;70589;51.826;5.860;2023-06-22T07:27:19;101576.66;;;24.47;42.76
81109;BME280;70589;51.826;5.860;2023-06-22T07:29:45;101573.99;;;24.49;43.02
81109;BME280;70589;51.826;5.860;2023-06-22T07:32:10;101572.49;;;24.47;41.37
81109;BME280;70589;51.826;5.860;2023-06-22T07:34:36;101569.14;;;24.49;42.58
81109;BME280;70589;51.826;5.860;2023-06-22T07:37:02;101566.06;;;24.56;43.00
81109;BME280;70589;51.826;5.860;2023-06-22T07:39:27;101565.34;;;24.61;42.79
81109;BME280;70589;51.826;5.860;2023-06-22T07:41:53;101565.18;;;24.69;42.32
81109;BME280;70589;51.826;5.860;2023-06-22T07:44:18;101565.05;;;24.81;42.26
81109;BME280;70589;51.826;5.860;2023-06-22T07:46:43;101563.71;;;24.68;42.42
81109;BME280;70589;51.826;5.860;2023-06-22T07:49:09;101566.35;;;25.05;42.62
81109;BME280;70589;51.826;5.860;2023-06-22T07:51:34;101567.08;;;24.70;42.36
81109;BME280;70589;51.826;5.860;2023-06-22T07:53:59;101569.11;;;25.30;41.70
81109;BME280;70589;51.826;5.860;2023-06-22T07:56:24;101572.22;;;24.93;42.34
81109;BME280;70589;51.826;5.860;2023-06-22T07:58:49;101568.80;;;24.99;42.17
81109;BME280;70589;51.826;5.860;2023-06-22T08:01:15;101564.89;;;25.58;41.33
81109;BME280;70589;51.826;5.860;2023-06-22T08:03:41;101562.11;;;25.21;41.27
81109;BME280;70589;51.826;5.860;2023-06-22T08:06:07;101558.18;;;25.30;41.90
81109;BME280;70589;51.826;5.860;2023-06-22T08:08:31;101552.34;;;25.43;41.24
81109;BME280;70589;51.826;5.860;2023-06-22T08:10:57;101544.15;;;25.54;41.33
81109;BME280;70589;51.826;5.860;2023-06-22T08:13:23;101532.04;;;25.60;41.21
81109;BME280;70589;51.826;5.860;2023-06-22T08:15:48;101528.26;;;25.78;41.57
81109;BME280;70589;51.826;5.860;2023-06-22T08:18:13;101525.18;;;25.96;41.43
81109;BME280;70589;51.826;5.860;2023-06-22T08:20:38;101520.98;;;26.21;40.37
81109;BME280;70589;51.826;5.860;2023-06-22T08:23:04;101517.01;;;26.39;40.20
81109;BME280;70589;51.826;5.860;2023-06-22T08:25:29;101513.99;;;26.34;40.37
81109;BME280;70589;51.826;5.860;2023-06-22T08:27:55;101513.60;;;26.50;40.42
81109;BME280;70589;51.826;5.860;2023-06-22T08:30:20;101508.91;;;26.58;39.54
81109;BME280;70589;51.826;5.860;2023-06-22T08:32:45;101502.70;;;26.36;39.35
81109;BME280;70589;51.826;5.860;2023-06-22T08:35:11;101503.88;;;26.67;39.51
81109;BME280;70589;51.826;5.860;2023-06-22T08:37:37;101506.10;;;26.57;39.35
81109;BME280;70589;51.826;5.860;2023-06-22T08:40:03;101507.37;;;26.97;39.45
81109;BME280;70589;51.826;5.860;2023-06-22T08:42:28;101503.59;;;27.00;38.82
81109;BME280;70589;51.826;5.860;2023-06-22T08:44:53;101505.03;;;27.25;38.59
81109;BME280;70589;51.826;5.860;2023-06-22T08:47:18;101505.83;;;27.27;38.25
81109;BME280;70589;51.826;5.860;2023-06-22T08:49:43;101501.58;;;27.49;38.12
81109;BME280;70589;51.826;5.860;2023-06-22T08:52:09;101496.39;;;27.58;36.76
81109;BME280;70589;51.826;5.860;2023-06-22T08:54:34;101492.73;;;27.69;37.15
81109;BME280;70589;51.826;5.860;2023-06-22T08:57:00;101488.45;;;27.86;36.75
81109;BME280;70589;51.826;5.860;2023-06-22T08:59:25;101486.92;;;27.72;36.53
81109;BME280;70589;51.826;5.860;2023-06-22T09:01:50;101485.41;;;27.87;36.24
81109;BME280;70589;51.826;5.860;2023-06-22T09:04:16;101490.60;;;27.93;34.80
81109;BME280;70589;51.826;5.860;2023-06-22T09:06:42;101490.62;;;28.07;36.34
81109;BME280;70589;51.826;5.860;2023-06-22T09:09:07;101489.61;;;28.16;35.28
81109;BME280;70589;51.826;5.860;2023-06-22T09:11:33;101484.41;;;28.24;35.03
81109;BME280;70589;51.826;5.860;2023-06-22T09:13:58;101481.04;;;28.41;34.91
81109;BME280;70589;51.826;5.860;2023-06-22T09:16:24;101483.36;;;28.55;35.22
81109;BME280;70589;51.826;5.860;2023-06-22T09:18:49;101480.53;;;28.70;34.22
81109;BME280;70589;51.826;5.860;2023-06-22T09:21:14;101472.64;;;28.54;33.69
81109;BME280;70589;51.826;5.860;2023-06-22T09:23:39;101473.89;;;28.66;34.43
81109;BME280;70589;51.826;5.860;2023-06-22T09:26:05;101473.06;;;28.98;34.35
81109;BME280;70589;51.826;5.860;2023-06-22T09:28:30;101472.79;;;28.51;34.44
81109;BME280;70589;51.826;5.860;2023-06-22T09:30:55;101474.07;;;28.72;34.43
81109;BME280;70589;51.826;5.860;2023-06-22T09:33:21;101469.74;;;28.95;33.67
81109;BME280;70589;51.826;5.860;2023-06-22T09:35:47;101470.89;;;28.89;34.01
81109;BME280;70589;51.826;5.860;2023-06-22T09:38:13;101467.03;;;28.38;34.02
81109;BME280;70589;51.826;5.860;2023-06-22T09:40:38;101468.06;;;28.78;33.84
81109;BME280;70589;51.826;5.860;2023-06-22T09:43:03;101465.46;;;28.40;33.31
81109;BME280;70589;51.826;5.860;2023-06-22T09:45:29;101467.56;;;28.50;34.38
81109;BME280;70589;51.826;5.860;2023-06-22T09:47:55;101467.19;;;28.30;34.42
81109;BME280;70589;51.826;5.860;2023-06-22T09:50:20;101469.71;;;28.09;34.63
81109;BME280;70589;51.826;5.860;2023-06-22T09:52:46;101468.97;;;27.82;35.56
81109;BME280;70589;51.826;5.860;2023-06-22T09:55:12;101465.93;;;27.75;36.11
81109;BME280;70589;51.826;5.860;2023-06-22T09:57:37;101464.84;;;27.83;35.34
81109;BME280;70589;51.826;5.860;2023-06-22T10:00:04;101465.44;;;27.48;35.91
81109;BME280;70589;51.826;5.860;2023-06-22T10:02:28;101464.67;;;27.42;35.84
81109;BME280;70589;51.826;5.860;2023-06-22T10:04:53;101462.53;;;27.50;35.84
81109;BME280;70589;51.826;5.860;2023-06-22T10:07:18;101459.57;;;27.14;35.66
81109;BME280;70589;51.826;5.860;2023-06-22T10:09:44;101457.35;;;27.58;36.00
81109;BME280;70589;51.826;5.860;2023-06-22T10:12:09;101459.03;;;27.51;36.28
81109;BME280;70589;51.826;5.860;2023-06-22T10:14:34;101459.31;;;26.96;36.25
81109;BME280;70589;51.826;5.860;2023-06-22T10:17:00;101459.82;;;27.42;36.59
81109;BME280;70589;51.826;5.860;2023-06-22T10:19:25;101458.40;;;26.92;36.68
81109;BME280;70589;51.826;5.860;2023-06-22T10:21:50;101465.19;;;27.42;36.12
81109;BME280;70589;51.826;5.860;2023-06-22T10:24:16;101464.63;;;27.47;36.69
81109;BME280;70589;51.826;5.860;2023-06-22T10:26:42;101463.62;;;27.47;35.68
81109;BME280;70589;51.826;5.860;2023-06-22T10:29:06;101462.02;;;27.47;36.88
81109;BME280;70589;51.826;5.860;2023-06-22T10:31:32;101462.45;;;27.48;36.06
81109;BME280;70589;51.826;5.860;2023-06-22T10:33:57;101459.98;;;27.47;35.88
81109;BME280;70589;51.826;5.860;2023-06-22T10:36:23;101456.63;;;27.17;36.17
81109;BME280;70589;51.826;5.860;2023-06-22T10:38:48;101454.99;;;27.41;36.05
81109;BME280;70589;51.826;5.860;2023-06-22T10:41:13;101454.19;;;27.15;36.40
81109;BME280;70589;51.826;5.860;2023-06-22T10:43:39;101451.54;;;27.41;36.38
81109;BME280;70589;51.826;5.860;2023-06-22T10:46:06;101451.53;;;27.35;36.74
81109;BME280;70589;51.826;5.860;2023-06-22T10:48:30;101445.62;;;27.36;36.41
81109;BME280;70589;51.826;5.860;2023-06-22T10:50:55;101441.73;;;26.88;37.18
81109;BME280;70589;51.826;5.860;2023-06-22T10:53:20;101434.17;;;27.36;35.58
81109;BME280;70589;51.826;5.860;2023-06-22T10:55:46;101432.04;;;27.01;35.73
81109;BME280;70589;51.826;5.860;2023-06-22T10:58:11;101432.20;;;27.15;36.20
81109;BME280;70589;51.826;5.860;2023-06-22T11:00:36;101432.70;;;27.04;36.78
81109;BME280;70589;51.826;5.860;2023-06-22T11:03:01;101431.35;;;26.90;36.61
81109;BME280;70589;51.826;5.860;2023-06-22T11:05:27;101430.59;;;26.92;36.78
81109;BME280;70589;51.826;5.860;2023-06-22T11:07:52;101429.71;;;26.86;36.70
81109;BME280;70589;51.826;5.860;2023-06-22T11:10:17;101429.90;;;26.86;36.88
81109;BME280;70589;51.826;5.860;2023-06-22T11:12:43;101433.96;;;26.79;37.52
81109;BME280;70589;51.826;5.860;2023-06-22T11:15:09;101434.82;;;26.98;39.62
81109;BME280;70589;51.826;5.860;2023-06-22T11:17:33;101439.98;;;26.53;40.24
81109;BME280;70589;51.826;5.860;2023-06-22T11:19:58;101447.40;;;26.54;41.26
81109;BME280;70589;51.826;5.860;2023-06-22T11:22:24;101451.49;;;26.29;40.76
81109;BME280;70589;51.826;5.860;2023-06-22T11:24:50;101460.38;;;26.12;41.80
81109;BME280;70589;51.826;5.860;2023-06-22T11:27:15;101467.28;;;26.00;41.03
81109;BME280;70589;51.826;5.860;2023-06-22T11:29:41;101473.70;;;25.94;41.27
81109;BME280;70589;51.826;5.860;2023-06-22T11:32:07;101476.68;;;26.08;40.78
81109;BME280;70589;51.826;5.860;2023-06-22T11:34:31;101479.86;;;25.78;41.54
81109;BME280;70589;51.826;5.860;2023-06-22T11:36:57;101481.34;;;25.74;41.77
81109;BME280;70589;51.826;5.860;2023-06-22T11:39:22;101473.72;;;25.96;43.10
81109;BME280;70589;51.826;5.860;2023-06-22T11:41:48;101467.81;;;25.88;43.52
81109;BME280;70589;51.826;5.860;2023-06-22T11:44:14;101470.83;;;25.61;44.12
81109;BME280;70589;51.826;5.860;2023-06-22T11:46:39;101473.80;;;25.57;45.54
81109;BME280;70589;51.826;5.860;2023-06-22T11:49:05;101475.62;;;25.75;47.22
81109;BME280;70589;51.826;5.860;2023-06-22T11:51:31;101475.11;;;25.59;47.08
81109;BME280;70589;51.826;5.860;2023-06-22T11:53:57;101471.33;;;25.26;48.09
81109;BME280;70589;51.826;5.860;2023-06-22T11:56:22;101470.27;;;25.41;49.34
81109;BME280;70589;51.826;5.860;2023-06-22T11:58:47;101468.71;;;25.02;51.93
81109;BME280;70589;51.826;5.860;2023-06-22T12:01:12;101465.15;;;24.61;52.61
81109;BME280;70589;51.826;5.860;2023-06-22T12:03:37;101464.93;;;24.23;53.31
81109;BME280;70589;51.826;5.860;2023-06-22T12:06:03;101465.83;;;23.89;52.80
81109;BME280;70589;51.826;5.860;2023-06-22T12:08:28;101466.59;;;23.97;53.09
81109;BME280;70589;51.826;5.860;2023-06-22T12:10:53;101476.65;;;23.78;55.24
81109;BME280;70589;51.826;5.860;2023-06-22T12:13:19;101483.67;;;23.72;55.41
81109;BME280;70589;51.826;5.860;2023-06-22T12:15:44;101489.91;;;23.57;54.82
81109;BME280;70589;51.826;5.860;2023-06-22T12:18:10;101494.89;;;23.76;55.82
81109;BME280;70589;51.826;5.860;2023-06-22T12:20:36;101485.25;;;23.49;55.52
81109;BME280;70589;51.826;5.860;2023-06-22T12:23:01;101473.08;;;23.43;55.21
81109;BME280;70589;51.826;5.860;2023-06-22T12:25:26;101459.05;;;23.42;55.07
81109;BME280;70589;51.826;5.860;2023-06-22T12:27:51;101444.66;;;23.57;55.32
81109;BME280;70589;51.826;5.860;2023-06-22T12:30:17;101433.46;;;23.54;55.69
81109;BME280;70589;51.826;5.860;2023-06-22T12:32:42;101423.29;;;23.42;55.25
81109;BME280;70589;51.826;5.860;2023-06-22T12:35:08;101416.43;;;23.35;55.73
81109;BME280;70589;51.826;5.860;2023-06-22T12:37:33;101405.29;;;23.22;55.85
81109;BME280;70589;51.826;5.860;2023-06-22T12:39:58;101400.39;;;23.35;55.32